createdAt,value
2022-12-22T00:02:55.114Z,6.30
2022-12-22T00:06:19.384Z,6.36
2022-12-22T00:09:43.451Z,6.39
2022-12-22T00:13:08.173Z,6.38
2022-12-22T00:16:32.175Z,6.43
2022-12-22T00:19:56.222Z,6.46
2022-12-22T00:23:20.245Z,6.46
2022-12-22T00:26:45.151Z,6.45
2022-12-22T00:30:08.984Z,6.47
2022-12-22T00:33:35.722Z,6.38
2022-12-22T00:36:59.694Z,6.31
2022-12-22T00:40:45.880Z,6.25
2022-12-22T00:44:10.594Z,6.15
2022-12-22T00:47:48.218Z,6.23
2022-12-22T00:51:12.336Z,6.37
2022-12-22T00:54:37.980Z,6.44
2022-12-22T00:58:02.502Z,6.37
2022-12-22T01:01:27.531Z,6.25
2022-12-22T01:04:51.306Z,6.25
2022-12-22T01:08:15.570Z,6.37
2022-12-22T01:11:39.609Z,6.16
2022-12-22T01:15:03.615Z,6.28
2022-12-22T01:18:27.618Z,6.08
2022-12-22T01:21:51.513Z,6.13
2022-12-22T01:25:15.513Z,6.17
2022-12-22T01:28:39.666Z,6.15
2022-12-22T01:32:04.521Z,6.08
2022-12-22T01:35:41.117Z,6.22
2022-12-22T01:39:05.212Z,6.34
2022-12-22T01:42:31.417Z,6.43
2022-12-22T01:45:56.048Z,6.25
2022-12-22T01:49:20.247Z,6.37
2022-12-22T01:52:53.899Z,6.18
2022-12-22T01:56:19.068Z,6.34
2022-12-22T01:59:42.953Z,6.48
2022-12-22T02:03:06.930Z,6.50
2022-12-22T02:06:39.414Z,6.45
2022-12-22T02:10:13.745Z,6.48
2022-12-22T02:14:04.688Z,6.43
2022-12-22T02:17:36.587Z,6.46
2022-12-22T02:21:14.750Z,6.46
2022-12-22T02:25:00.615Z,6.48
2022-12-22T02:28:25.519Z,6.51
2022-12-22T02:31:59.192Z,6.49
2022-12-22T02:35:31.206Z,6.52
2022-12-22T02:39:10.429Z,6.52
2022-12-22T02:43:12.591Z,6.57
2022-12-22T02:47:05.333Z,6.50
2022-12-22T02:50:53.455Z,6.49
2022-12-22T02:54:18.514Z,6.54
2022-12-22T02:57:42.731Z,6.48
2022-12-22T03:01:06.561Z,6.55
2022-12-22T03:04:30.679Z,6.49
2022-12-22T03:07:55.643Z,6.51
2022-12-22T03:11:19.457Z,6.34
2022-12-22T03:14:43.503Z,6.31
2022-12-22T03:18:07.414Z,6.42
2022-12-22T03:21:31.232Z,6.33
2022-12-22T03:24:55.070Z,6.44
2022-12-22T03:28:06.258Z,6.44
2022-12-22T03:31:12.552Z,6.51
2022-12-22T03:34:18.256Z,6.47
2022-12-22T03:37:24.309Z,6.51
2022-12-22T03:40:31.898Z,6.51
2022-12-22T03:43:55.931Z,6.49
2022-12-22T03:47:01.391Z,6.55
2022-12-22T03:50:07.761Z,6.54
2022-12-22T03:53:13.602Z,6.54
2022-12-22T03:56:19.262Z,6.53
2022-12-22T03:59:25.027Z,6.52
2022-12-22T04:02:30.746Z,6.54
2022-12-22T04:05:36.428Z,6.54
2022-12-22T04:08:42.421Z,6.51
2022-12-22T04:12:06.402Z,6.39
2022-12-22T04:15:12.125Z,6.39
2022-12-22T04:18:17.924Z,6.45
2022-12-22T04:21:23.439Z,6.35
2022-12-22T04:24:29.024Z,6.54
2022-12-22T04:27:34.365Z,6.50
2022-12-22T04:30:40.262Z,6.55
2022-12-22T04:33:46.395Z,6.53
2022-12-22T04:36:52.311Z,6.57
2022-12-22T04:39:58.446Z,6.55
2022-12-22T04:43:04.341Z,6.52
2022-12-22T04:46:09.919Z,6.49
2022-12-22T04:49:15.610Z,6.48
2022-12-22T04:52:21.157Z,6.51
2022-12-22T04:55:27.218Z,6.51
2022-12-22T04:58:34.292Z,6.58
2022-12-22T05:01:40.230Z,6.62
2022-12-22T05:04:45.961Z,6.62
2022-12-22T05:07:51.304Z,6.62
2022-12-22T05:10:56.695Z,6.57
2022-12-22T05:14:07.068Z,6.42
2022-12-22T05:17:13.243Z,6.45
2022-12-22T05:20:19.129Z,6.45
2022-12-22T05:23:24.326Z,6.45
2022-12-22T05:26:29.845Z,6.45
2022-12-22T05:29:35.637Z,6.44
2022-12-22T05:32:40.937Z,6.44
2022-12-22T05:35:47.231Z,6.54
2022-12-22T05:38:53.214Z,6.54
2022-12-22T05:41:58.626Z,6.49
2022-12-22T05:45:05.908Z,6.56
2022-12-22T05:48:12.333Z,6.47
2022-12-22T05:51:17.838Z,6.54
2022-12-22T05:54:23.490Z,6.45
2022-12-22T05:57:29.591Z,6.37
2022-12-22T06:00:35.047Z,6.44
2022-12-22T06:03:40.396Z,6.42
2022-12-22T06:06:46.807Z,6.50
2022-12-22T06:09:52.911Z,6.51
2022-12-22T06:12:58.469Z,6.52
2022-12-22T06:16:04.675Z,6.50
2022-12-22T06:19:10.912Z,6.55
2022-12-22T06:22:17.103Z,6.49
2022-12-22T06:25:22.879Z,6.47
2022-12-22T06:28:29.433Z,6.46
2022-12-22T06:31:35.377Z,6.57
2022-12-22T06:34:41.206Z,6.48
2022-12-22T06:37:46.758Z,6.55
2022-12-22T06:40:52.165Z,6.49
2022-12-22T06:43:57.535Z,6.48
2022-12-22T06:47:03.104Z,6.53
2022-12-22T06:50:09.757Z,6.44
2022-12-22T06:53:15.747Z,6.55
2022-12-22T06:56:21.948Z,6.49
2022-12-22T06:59:27.378Z,6.49
2022-12-22T07:02:33.047Z,6.51
2022-12-22T07:05:38.921Z,6.49
2022-12-22T07:08:45.970Z,6.51
2022-12-22T07:11:51.531Z,6.57
2022-12-22T07:14:57.386Z,6.65
2022-12-22T07:18:02.922Z,6.55
2022-12-22T07:21:12.012Z,6.54
2022-12-22T07:24:23.469Z,6.54
2022-12-22T07:27:29.177Z,6.41
2022-12-22T07:30:37.136Z,6.53
2022-12-22T07:33:43.187Z,6.60
2022-12-22T07:36:48.990Z,6.58
2022-12-22T07:39:54.749Z,6.58
2022-12-22T07:43:01.124Z,6.45
2022-12-22T07:46:07.087Z,6.48
2022-12-22T07:49:36.444Z,6.36
2022-12-22T07:52:42.282Z,6.54
2022-12-22T07:55:48.078Z,6.53
2022-12-22T07:58:53.779Z,6.70
2022-12-22T08:01:59.943Z,6.57
2022-12-22T08:05:06.391Z,6.49
2022-12-22T08:08:12.413Z,6.69
2022-12-22T08:11:18.085Z,6.74
2022-12-22T08:14:23.953Z,6.69
2022-12-22T08:17:30.133Z,6.74
2022-12-22T08:20:35.743Z,6.75
2022-12-22T08:23:41.750Z,6.66
2022-12-22T08:26:52.887Z,6.77
2022-12-22T08:30:01.035Z,6.74
2022-12-22T08:33:06.386Z,6.80
2022-12-22T08:36:13.465Z,6.78
2022-12-22T08:39:22.852Z,6.76
2022-12-22T08:42:29.180Z,6.58
2022-12-22T08:45:34.662Z,6.82
2022-12-22T08:48:40.178Z,6.84
2022-12-22T08:51:47.160Z,6.93
2022-12-22T08:54:52.534Z,6.91
2022-12-22T08:57:58.249Z,6.86
2022-12-22T09:01:03.908Z,6.88
2022-12-22T09:04:09.412Z,6.86
2022-12-22T09:07:15.398Z,6.94
2022-12-22T09:10:20.821Z,7.00
2022-12-22T09:13:26.422Z,6.96
2022-12-22T09:16:33.824Z,7.12
2022-12-22T09:19:39.247Z,7.20
2022-12-22T09:22:45.148Z,7.19
2022-12-22T09:25:50.827Z,7.16
2022-12-22T09:28:57.082Z,7.13
2022-12-22T09:32:02.617Z,7.20
2022-12-22T09:35:08.322Z,7.21
2022-12-22T09:38:13.837Z,7.21
2022-12-22T09:41:27.458Z,7.23
2022-12-22T09:44:32.901Z,7.41
2022-12-22T09:47:40.585Z,7.38
2022-12-22T09:50:46.397Z,7.48
2022-12-22T09:54:00.615Z,7.48
2022-12-22T09:57:12.847Z,7.09
2022-12-22T10:00:22.213Z,7.30
2022-12-22T10:03:35.398Z,7.59
2022-12-22T10:07:08.719Z,7.71
2022-12-22T10:10:28.531Z,7.68
2022-12-22T10:13:35.211Z,7.69
2022-12-22T10:16:40.995Z,7.79
2022-12-22T10:19:48.127Z,7.78
2022-12-22T10:22:55.385Z,7.50
2022-12-22T10:26:29.146Z,7.35
2022-12-22T10:29:37.226Z,7.34
2022-12-22T10:32:43.233Z,7.33
2022-12-22T10:35:53.329Z,7.53
2022-12-22T10:39:06.622Z,7.67
2022-12-22T10:42:15.117Z,7.84
2022-12-22T10:45:24.157Z,7.73
2022-12-22T10:48:36.069Z,7.58
2022-12-22T10:51:47.240Z,7.72
2022-12-22T10:54:52.733Z,7.55
2022-12-22T10:58:17.864Z,7.51
2022-12-22T11:01:32.632Z,7.52
2022-12-22T11:04:38.370Z,7.65
2022-12-22T11:07:47.212Z,7.56
2022-12-22T11:11:44.345Z,7.72
2022-12-22T11:15:18.551Z,7.45
2022-12-22T11:18:42.469Z,7.50
2022-12-22T11:21:59.009Z,7.69
2022-12-22T11:25:30.310Z,7.55
2022-12-22T11:29:03.234Z,7.78
2022-12-22T11:32:32.421Z,7.59
2022-12-22T11:35:43.668Z,7.85
2022-12-22T11:38:59.391Z,7.78
2022-12-22T11:42:23.928Z,7.73
2022-12-22T11:45:53.145Z,7.86
2022-12-22T11:49:06.418Z,8.02
2022-12-22T11:52:46.111Z,8.03
2022-12-22T11:56:12.657Z,8.04
2022-12-22T11:59:38.610Z,8.20
2022-12-22T12:03:22.766Z,8.25
2022-12-22T12:06:40.471Z,8.13
2022-12-22T12:10:14.367Z,8.35
2022-12-22T12:14:15.144Z,8.28
2022-12-22T12:17:20.860Z,8.19
2022-12-22T12:20:53.948Z,8.16
2022-12-22T12:24:28.674Z,8.31
2022-12-22T12:27:36.529Z,8.22
2022-12-22T12:30:59.797Z,8.35
2022-12-22T12:34:10.162Z,8.35
2022-12-22T12:37:26.556Z,8.43
2022-12-22T12:41:03.200Z,8.52
2022-12-22T12:44:14.366Z,8.58
2022-12-22T12:47:36.323Z,8.39
2022-12-22T12:50:42.349Z,8.42
2022-12-22T12:54:22.387Z,8.44
2022-12-22T12:57:47.527Z,8.50
2022-12-22T13:00:58.599Z,8.43
2022-12-22T13:04:06.019Z,8.21
2022-12-22T13:07:12.024Z,8.29
2022-12-22T13:10:26.206Z,8.34
2022-12-22T13:13:39.348Z,8.17
2022-12-22T13:16:45.019Z,8.32
2022-12-22T13:19:51.917Z,8.36
2022-12-22T13:23:00.586Z,8.16
2022-12-22T13:26:10.745Z,8.23
2022-12-22T13:29:20.540Z,8.17
2022-12-22T13:32:36.403Z,8.25
2022-12-22T13:35:48.361Z,8.32
2022-12-22T13:39:04.828Z,8.38
2022-12-22T13:42:13.999Z,8.37
2022-12-22T13:45:39.052Z,8.17
2022-12-22T13:48:54.732Z,8.27
2022-12-22T13:52:05.167Z,8.26
2022-12-22T13:55:16.528Z,8.34
2022-12-22T13:58:28.157Z,8.15
2022-12-22T14:01:35.051Z,8.09
2022-12-22T14:04:43.211Z,8.19
2022-12-22T14:08:07.139Z,8.17
2022-12-22T14:11:13.272Z,8.11
2022-12-22T14:14:22.801Z,8.11
2022-12-22T14:17:30.762Z,8.10
2022-12-22T14:20:40.629Z,8.18
2022-12-22T14:23:47.176Z,8.12
2022-12-22T14:26:54.793Z,8.11
2022-12-22T14:30:04.005Z,8.14
2022-12-22T14:33:27.549Z,8.13
2022-12-22T14:36:41.126Z,8.17
2022-12-22T14:39:56.791Z,8.13
2022-12-22T14:43:06.568Z,8.00
2022-12-22T14:46:12.397Z,8.06
2022-12-22T14:49:20.204Z,8.08
2022-12-22T14:52:36.135Z,8.09
2022-12-22T14:55:42.707Z,7.98
2022-12-22T14:58:50.036Z,8.01
2022-12-22T15:02:22.533Z,8.00
2022-12-22T15:05:33.611Z,7.98
2022-12-22T15:08:44.864Z,8.07
2022-12-22T15:11:56.374Z,8.10
2022-12-22T15:15:02.943Z,8.07
2022-12-22T15:18:15.821Z,8.00
2022-12-22T15:21:23.282Z,7.94
2022-12-22T15:24:29.822Z,7.88
2022-12-22T15:27:35.703Z,7.81
2022-12-22T15:30:42.146Z,7.78
2022-12-22T15:33:48.413Z,7.77
2022-12-22T15:36:54.878Z,7.64
2022-12-22T15:40:00.841Z,7.58
2022-12-22T15:43:17.253Z,7.61
2022-12-22T15:46:33.807Z,7.49
2022-12-22T15:49:39.958Z,7.45
2022-12-22T15:52:53.602Z,7.46
2022-12-22T15:55:59.149Z,7.29
2022-12-22T15:59:04.968Z,7.37
2022-12-22T16:02:13.007Z,7.37
2022-12-22T16:05:18.862Z,7.37
2022-12-22T16:08:31.690Z,7.35
2022-12-22T16:11:39.293Z,7.24
2022-12-22T16:14:52.410Z,7.35
2022-12-22T16:18:02.717Z,7.49
2022-12-22T16:21:32.981Z,7.40
2022-12-22T16:24:41.364Z,7.47
2022-12-22T16:27:49.722Z,7.53
2022-12-22T16:30:56.133Z,7.48
2022-12-22T16:34:01.859Z,7.57
2022-12-22T16:37:07.588Z,7.64
2022-12-22T16:40:13.739Z,7.47
2022-12-22T16:46:59.293Z,7.58
2022-12-22T16:50:16.537Z,7.57
2022-12-22T16:53:22.458Z,7.69
2022-12-22T16:56:30.793Z,7.69
2022-12-22T16:59:36.448Z,7.64
2022-12-22T17:02:44.605Z,7.58
2022-12-22T17:05:54.468Z,7.69
2022-12-22T17:09:00.018Z,7.69
2022-12-22T17:12:07.562Z,7.73
2022-12-22T17:15:23.485Z,7.73
2022-12-22T17:18:31.600Z,7.73
2022-12-22T17:21:37.236Z,7.77
2022-12-22T17:24:42.915Z,7.64
2022-12-22T17:27:48.515Z,7.56
2022-12-22T17:30:54.761Z,7.68
2022-12-22T17:34:00.516Z,7.59
2022-12-22T17:37:22.404Z,7.65
2022-12-22T17:40:32.667Z,7.58
2022-12-22T17:43:38.264Z,7.62
2022-12-22T17:46:43.417Z,7.62
2022-12-22T17:49:48.973Z,7.76
2022-12-22T17:52:55.641Z,7.82
2022-12-22T17:56:08.250Z,7.57
2022-12-22T17:59:14.866Z,7.67
2022-12-22T18:02:23.005Z,7.75
2022-12-22T18:05:34.511Z,7.60
2022-12-22T18:08:40.123Z,7.72
2022-12-22T18:11:46.356Z,7.67
2022-12-22T18:14:53.204Z,7.59
2022-12-22T18:17:58.819Z,7.68
2022-12-22T18:21:06.437Z,7.67
2022-12-22T18:24:19.682Z,7.65
2022-12-22T18:27:25.432Z,7.67
2022-12-22T18:30:32.534Z,7.62
2022-12-22T18:33:38.863Z,7.64
2022-12-22T18:36:46.081Z,7.51
2022-12-22T18:39:52.292Z,7.65
2022-12-22T18:42:59.066Z,7.61
2022-12-22T18:46:04.803Z,7.63
2022-12-22T18:49:10.270Z,7.66
2022-12-22T18:52:22.136Z,7.65
2022-12-22T18:55:30.859Z,7.57
2022-12-22T18:58:36.912Z,7.61
2022-12-22T19:01:43.284Z,7.64
2022-12-22T19:04:51.103Z,7.72
2022-12-22T19:07:58.212Z,7.71
2022-12-22T19:11:10.850Z,7.65
2022-12-22T19:14:20.555Z,7.63
2022-12-22T19:17:29.381Z,7.53
2022-12-22T19:20:37.017Z,7.63
2022-12-22T19:23:45.745Z,7.62
2022-12-22T19:26:53.179Z,7.64
2022-12-22T19:30:04.647Z,7.59
2022-12-22T19:33:25.270Z,7.62
2022-12-22T19:36:34.267Z,7.72
2022-12-22T19:39:41.309Z,7.63
2022-12-22T19:42:51.232Z,7.74
2022-12-22T19:45:58.809Z,7.76
2022-12-22T19:49:06.169Z,7.69
2022-12-22T19:52:13.569Z,7.66
2022-12-22T19:55:21.597Z,7.68
2022-12-22T19:58:39.010Z,7.64
2022-12-22T20:01:45.751Z,7.66
2022-12-22T20:04:52.853Z,7.73
2022-12-22T20:08:01.698Z,7.66
2022-12-22T20:11:20.458Z,7.34
2022-12-22T20:14:26.812Z,7.36
2022-12-22T20:17:33.616Z,7.27
2022-12-22T20:20:41.762Z,7.13
2022-12-22T20:23:48.879Z,7.22
2022-12-22T20:26:55.406Z,7.09
2022-12-22T20:30:02.275Z,7.03
2022-12-22T20:33:10.410Z,7.05
2022-12-22T20:36:29.112Z,7.13
2022-12-22T20:39:35.624Z,7.06
2022-12-22T20:42:42.345Z,7.13
2022-12-22T20:45:52.866Z,7.18
2022-12-22T20:49:02.508Z,7.32
2022-12-22T20:52:16.172Z,7.13
2022-12-22T20:55:25.715Z,7.02
2022-12-22T20:58:36.057Z,7.12
2022-12-22T21:01:42.310Z,7.16
2022-12-22T21:04:49.706Z,7.01
2022-12-22T21:07:57.157Z,6.89
2022-12-22T21:11:03.426Z,7.06
2022-12-22T21:14:11.420Z,6.77
2022-12-22T21:17:20.120Z,6.93
2022-12-22T21:20:29.738Z,6.88
2022-12-22T21:23:35.950Z,7.00
2022-12-22T21:26:53.179Z,6.88
2022-12-22T21:29:59.509Z,6.94
2022-12-22T21:33:05.437Z,7.07
2022-12-22T21:36:30.587Z,7.00
2022-12-22T21:39:45.138Z,7.03
2022-12-22T21:42:53.424Z,7.13
2022-12-22T21:46:00.067Z,7.13
2022-12-22T21:49:07.031Z,6.99
2022-12-22T21:52:13.878Z,7.05
2022-12-22T21:55:26.325Z,7.04
2022-12-22T21:58:33.195Z,7.02
2022-12-22T22:01:41.753Z,6.99
2022-12-22T22:04:53.996Z,7.05
2022-12-22T22:08:03.138Z,7.20
2022-12-22T22:11:24.413Z,7.15
2022-12-22T22:14:31.711Z,7.19
2022-12-22T22:17:37.866Z,7.10
2022-12-22T22:20:45.005Z,7.09
2022-12-22T22:23:51.475Z,7.13
2022-12-22T22:26:58.654Z,7.15
2022-12-22T22:30:07.417Z,7.21
2022-12-22T22:33:13.237Z,7.13
2022-12-22T22:36:20.023Z,6.99
2022-12-22T22:39:26.272Z,6.93
2022-12-22T22:42:32.491Z,6.99
2022-12-22T22:45:40.982Z,6.99
2022-12-22T22:48:48.978Z,6.89
2022-12-22T22:51:55.889Z,7.04
2022-12-22T22:55:02.690Z,7.03
2022-12-22T22:58:11.892Z,7.06
2022-12-22T23:01:18.285Z,7.02
2022-12-22T23:04:23.963Z,7.01
2022-12-22T23:07:30.796Z,7.16
2022-12-22T23:10:41.559Z,7.02
2022-12-22T23:13:48.333Z,6.96
2022-12-22T23:17:00.695Z,6.97
2022-12-22T23:20:06.828Z,7.04
2022-12-22T23:23:12.473Z,7.03
2022-12-22T23:26:17.955Z,6.97
2022-12-22T23:29:23.404Z,6.97
2022-12-22T23:32:29.387Z,6.96
2022-12-22T23:35:40.015Z,6.90
2022-12-22T23:38:46.474Z,6.92
2022-12-22T23:41:52.103Z,6.92
2022-12-22T23:44:58.294Z,6.89
2022-12-22T23:48:04.968Z,6.78
2022-12-22T23:51:12.497Z,6.76
2022-12-22T23:54:19.152Z,6.93
2022-12-22T23:57:25.464Z,6.87
